Time,TemperatureF,DewpointF,PressureIn,WindDirection,WindDirectionDegrees,WindSpeedMPH,WindSpeedGustMPH,Humidity,HourlyPrecipIn,Conditions,Clouds,dailyrainin,SolarRadiationWatts/m^2,SoftwareType,DateUTC
2013-10-12 00:12:00,31.0,29.0,-100.00,SW,222,0.0,3.0,94,0.00,,,0.27,0.000000,,2013-10-12 06:12:00,
2013-10-12 00:22:00,31.0,29.0,-100.00,SW,222,0.0,3.0,94,0.00,,,0.27,0.000000,,2013-10-12 06:22:00,
2013-10-12 00:32:00,31.0,29.0,-100.00,SW,222,0.0,3.0,94,0.00,,,0.27,0.000000,,2013-10-12 06:32:00,
2013-10-12 00:42:00,31.0,29.0,-100.00,SW,222,0.0,3.0,94,0.00,,,0.27,0.000000,,2013-10-12 06:42:00,
2013-10-12 01:12:00,31.0,30.0,-100.00,SW,221,5.0,6.0,97,0.00,,,0.27,0.000000,,2013-10-12 07:12:00,
2013-10-12 01:22:00,31.0,30.0,-100.00,SW,221,5.0,6.0,97,0.00,,,0.27,0.000000,,2013-10-12 07:22:00,
2013-10-12 01:32:00,31.0,30.0,-100.00,SW,221,5.0,6.0,97,0.00,,,0.27,0.000000,,2013-10-12 07:32:00,
2013-10-12 01:42:00,31.0,30.0,-100.00,SW,221,5.0,6.0,97,0.00,,,0.27,0.000000,,2013-10-12 07:42:00,
2013-10-12 02:12:00,30.0,29.0,-100.00,SW,232,3.0,7.0,96,0.00,,,0.27,0.000000,,2013-10-12 08:12:00,
2013-10-12 02:22:00,30.0,29.0,-100.00,SW,232,3.0,7.0,96,0.00,,,0.27,0.000000,,2013-10-12 08:22:00,
2013-10-12 02:32:00,30.0,29.0,-100.00,SW,232,3.0,7.0,96,0.00,,,0.27,0.000000,,2013-10-12 08:32:00,
2013-10-12 02:42:00,30.0,29.0,-100.00,SW,232,3.0,7.0,96,0.00,,,0.27,0.000000,,2013-10-12 08:42:00,
2013-10-12 03:11:00,28.0,26.0,-100.00,SW,229,7.0,9.0,91,0.00,,,0.27,0.000000,,2013-10-12 09:11:00,
2013-10-12 03:21:00,28.0,26.0,-100.00,SW,229,7.0,9.0,91,0.00,,,0.27,0.000000,,2013-10-12 09:21:00,
2013-10-12 03:33:00,28.0,26.0,-100.00,SW,229,7.0,9.0,91,0.00,,,0.27,0.000000,,2013-10-12 09:33:00,
2013-10-12 03:43:00,28.0,26.0,-100.00,SW,229,7.0,9.0,91,0.00,,,0.27,0.000000,,2013-10-12 09:43:00,
2013-10-12 04:12:00,26.0,24.0,-100.00,SW,223,2.0,7.0,91,0.00,,,0.27,0.000000,,2013-10-12 10:12:00,
2013-10-12 04:23:00,26.0,24.0,-100.00,SW,223,2.0,7.0,91,0.00,,,0.27,0.000000,,2013-10-12 10:23:00,
2013-10-12 04:32:00,26.0,24.0,-100.00,SW,223,2.0,7.0,91,0.00,,,0.27,0.000000,,2013-10-12 10:32:00,
2013-10-12 04:42:00,26.0,24.0,-100.00,SW,223,2.0,7.0,91,0.00,,,0.27,0.000000,,2013-10-12 10:42:00,
2013-10-12 05:12:00,27.0,26.0,-100.00,NE,51,4.0,6.0,97,0.00,,,0.27,0.000000,,2013-10-12 11:12:00,
2013-10-12 05:22:00,27.0,26.0,-100.00,NE,51,4.0,6.0,97,0.00,,,0.27,0.000000,,2013-10-12 11:22:00,
2013-10-12 05:33:00,27.0,26.0,-100.00,NE,51,4.0,6.0,97,0.00,,,0.27,0.000000,,2013-10-12 11:33:00,
2013-10-12 05:42:00,27.0,26.0,-100.00,NE,51,4.0,6.0,97,0.00,,,0.27,0.000000,,2013-10-12 11:42:00,
2013-10-12 06:11:00,27.0,26.0,-100.00,ENE,78,7.0,9.0,97,0.00,,,0.27,0.000000,,2013-10-12 12:11:00,
2013-10-12 06:22:00,27.0,26.0,-100.00,ENE,78,7.0,9.0,97,0.00,,,0.27,0.000000,,2013-10-12 12:22:00,
2013-10-12 06:32:00,27.0,26.0,-100.00,ENE,78,7.0,9.0,97,0.00,,,0.27,0.000000,,2013-10-12 12:32:00,
2013-10-12 06:42:00,27.0,26.0,-100.00,ENE,78,7.0,9.0,97,0.00,,,0.27,0.000000,,2013-10-12 12:42:00,
2013-10-12 07:11:00,27.0,26.0,-100.00,East,96,5.0,10.0,97,0.00,,,0.27,0.000000,,2013-10-12 13:11:00,
2013-10-12 07:21:00,27.0,26.0,-100.00,East,96,5.0,10.0,97,0.00,,,0.27,0.000000,,2013-10-12 13:21:00,
2013-10-12 07:31:00,27.0,26.0,-100.00,East,96,5.0,10.0,97,0.00,,,0.27,0.000000,,2013-10-12 13:31:00,
2013-10-12 07:42:00,27.0,26.0,-100.00,East,96,5.0,10.0,97,0.00,,,0.27,0.000000,,2013-10-12 13:42:00,
2013-10-12 08:12:00,24.0,23.0,-100.00,SW,221,0.0,5.0,94,0.00,,,0.27,4.000000,,2013-10-12 14:12:00,
2013-10-12 08:21:00,24.0,23.0,-100.00,SW,221,0.0,5.0,94,0.00,,,0.27,4.000000,,2013-10-12 14:21:00,
2013-10-12 08:32:00,24.0,23.0,-100.00,SW,221,0.0,5.0,94,0.00,,,0.27,4.000000,,2013-10-12 14:32:00,
2013-10-12 08:42:00,24.0,23.0,-100.00,SW,221,0.0,5.0,94,0.00,,,0.27,4.000000,,2013-10-12 14:42:00,
2013-10-12 09:11:00,28.0,27.0,-100.00,East,80,2.0,6.0,97,0.00,,,0.27,46.000000,,2013-10-12 15:11:00,
2013-10-12 09:22:00,28.0,27.0,-100.00,East,80,2.0,6.0,97,0.00,,,0.27,46.000000,,2013-10-12 15:22:00,
2013-10-12 09:33:00,28.0,27.0,-100.00,East,80,2.0,6.0,97,0.00,,,0.27,46.000000,,2013-10-12 15:33:00,
2013-10-12 09:43:00,28.0,27.0,-100.00,East,80,2.0,6.0,97,0.00,,,0.27,46.000000,,2013-10-12 15:43:00,
2013-10-12 10:13:00,29.0,28.0,-100.00,ENE,77,5.0,10.0,97,0.00,,,0.27,135.000000,,2013-10-12 16:13:00,
2013-10-12 10:23:00,29.0,28.0,-100.00,ENE,77,5.0,10.0,97,0.00,,,0.27,135.000000,,2013-10-12 16:23:00,
2013-10-12 10:33:00,29.0,28.0,-100.00,ENE,77,5.0,10.0,97,0.00,,,0.27,135.000000,,2013-10-12 16:33:00,
2013-10-12 10:43:00,29.0,28.0,-100.00,ENE,77,5.0,10.0,97,0.00,,,0.27,135.000000,,2013-10-12 16:43:00,
2013-10-12 11:13:00,32.0,30.0,-100.00,ENE,59,5.0,10.0,92,0.01,,,0.27,365.000000,,2013-10-12 17:13:00,
2013-10-12 11:23:00,32.0,30.0,-100.00,ENE,59,5.0,10.0,92,0.01,,,0.27,365.000000,,2013-10-12 17:23:00,
2013-10-12 11:34:00,32.0,30.0,-100.00,ENE,59,5.0,10.0,92,0.01,,,0.27,365.000000,,2013-10-12 17:34:00,
2013-10-12 11:42:00,32.0,30.0,-100.00,ENE,59,5.0,10.0,92,0.01,,,0.27,365.000000,,2013-10-12 17:42:00,
2013-10-12 12:12:00,42.0,31.0,-100.00,North,10,2.0,9.0,66,0.00,,,0.22,825.000000,,2013-10-12 18:12:00,
2013-10-12 12:22:00,42.0,31.0,-100.00,North,10,2.0,9.0,66,0.00,,,0.22,825.000000,,2013-10-12 18:22:00,
2013-10-12 12:32:00,42.0,31.0,-100.00,North,10,2.0,9.0,66,0.00,,,0.22,825.000000,,2013-10-12 18:32:00,
2013-10-12 12:42:00,42.0,31.0,-100.00,North,10,2.0,9.0,66,0.00,,,0.22,825.000000,,2013-10-12 18:42:00,
2013-10-12 13:11:00,46.0,29.0,-100.00,NNW,329,2.0,7.0,52,0.00,,,0.21,892.000000,,2013-10-12 19:11:00,
2013-10-12 13:22:00,46.0,29.0,-100.00,NNW,329,2.0,7.0,52,0.00,,,0.21,892.000000,,2013-10-12 19:22:00,
2013-10-12 13:32:00,46.0,29.0,-100.00,NNW,329,2.0,7.0,52,0.00,,,0.21,892.000000,,2013-10-12 19:32:00,
2013-10-12 13:42:00,46.0,29.0,-100.00,NNW,329,2.0,7.0,52,0.00,,,0.21,892.000000,,2013-10-12 19:42:00,
2013-10-12 14:12:00,47.0,28.0,-100.00,NNE,21,2.0,9.0,48,0.00,,,0.16,915.000000,,2013-10-12 20:12:00,
2013-10-12 14:22:00,47.0,28.0,-100.00,NNE,21,2.0,9.0,48,0.00,,,0.16,915.000000,,2013-10-12 20:22:00,
2013-10-12 14:32:00,47.0,28.0,-100.00,NNE,21,2.0,9.0,48,0.00,,,0.16,915.000000,,2013-10-12 20:32:00,
2013-10-12 14:42:00,47.0,28.0,-100.00,NNE,21,2.0,9.0,48,0.00,,,0.16,915.000000,,2013-10-12 20:42:00,
2013-10-12 15:11:00,51.0,30.0,-100.00,NNE,14,2.0,8.0,44,0.00,,,0.07,849.000000,,2013-10-12 21:11:00,
2013-10-12 15:22:00,51.0,30.0,-100.00,NNE,14,2.0,8.0,44,0.00,,,0.07,849.000000,,2013-10-12 21:22:00,
2013-10-12 15:34:00,51.0,30.0,-100.00,NNE,14,2.0,8.0,44,0.00,,,0.07,849.000000,,2013-10-12 21:34:00,
2013-10-12 15:43:00,51.0,30.0,-100.00,NNE,14,2.0,8.0,44,0.00,,,0.07,849.000000,,2013-10-12 21:43:00,
2013-10-12 16:13:00,50.0,26.0,-100.00,South,179,2.0,7.0,39,0.00,,,0.01,714.000000,,2013-10-12 22:13:00,
2013-10-12 16:24:00,50.0,26.0,-100.00,South,179,2.0,7.0,39,0.00,,,0.01,714.000000,,2013-10-12 22:24:00,
2013-10-12 16:33:00,50.0,26.0,-100.00,South,179,2.0,7.0,39,0.00,,,0.01,714.000000,,2013-10-12 22:33:00,
2013-10-12 16:43:00,50.0,26.0,-100.00,South,179,2.0,7.0,39,0.00,,,0.01,714.000000,,2013-10-12 22:43:00,
2013-10-12 17:12:00,50.0,25.0,-100.00,NNE,31,1.0,7.0,38,0.00,,,0.01,519.000000,,2013-10-12 23:12:00,
2013-10-12 17:22:00,50.0,25.0,-100.00,NNE,31,1.0,7.0,38,0.00,,,0.01,519.000000,,2013-10-12 23:22:00,
2013-10-12 17:33:00,50.0,25.0,-100.00,NNE,31,1.0,7.0,38,0.00,,,0.01,519.000000,,2013-10-12 23:33:00,
2013-10-12 17:42:00,50.0,25.0,-100.00,NNE,31,1.0,7.0,38,0.00,,,0.01,519.000000,,2013-10-12 23:42:00,
2013-10-12 18:12:00,50.0,25.0,-100.00,NNE,16,0.0,7.0,38,0.00,,,0.01,297.000000,,2013-10-13 00:12:00,
2013-10-12 18:21:00,50.0,25.0,-100.00,NNE,16,0.0,7.0,38,0.00,,,0.01,297.000000,,2013-10-13 00:21:00,
2013-10-12 18:32:00,50.0,25.0,-100.00,NNE,16,0.0,7.0,38,0.00,,,0.01,297.000000,,2013-10-13 00:32:00,
2013-10-12 18:42:00,50.0,25.0,-100.00,NNE,16,0.0,7.0,38,0.00,,,0.01,297.000000,,2013-10-13 00:42:00,
2013-10-12 19:12:00,39.0,23.0,-100.00,NE,56,4.0,7.0,52,-99.99,,,0.01,12.000000,,2013-10-13 01:12:00,
2013-10-12 19:21:00,39.0,23.0,-100.00,NE,56,4.0,7.0,52,-99.99,,,0.01,12.000000,,2013-10-13 01:21:00,
2013-10-12 19:32:00,39.0,23.0,-100.00,NE,56,4.0,7.0,52,-99.99,,,0.01,12.000000,,2013-10-13 01:32:00,
2013-10-12 19:42:00,39.0,23.0,-100.00,NE,56,4.0,7.0,52,-99.99,,,0.01,12.000000,,2013-10-13 01:42:00,
2013-10-12 20:11:00,38.0,22.0,-100.00,ESE,107,5.0,7.0,53,0.00,,,0.01,0.000000,,2013-10-13 02:11:00,
2013-10-12 20:22:00,38.0,22.0,-100.00,ESE,107,5.0,7.0,53,0.00,,,0.01,0.000000,,2013-10-13 02:22:00,
2013-10-12 20:32:00,38.0,22.0,-100.00,ESE,107,5.0,7.0,53,0.00,,,0.01,0.000000,,2013-10-13 02:32:00,
2013-10-12 20:42:00,38.0,22.0,-100.00,ESE,107,5.0,7.0,53,0.00,,,0.01,0.000000,,2013-10-13 02:42:00,
2013-10-12 21:12:00,38.0,24.0,-100.00,South,186,12.0,18.0,56,0.00,,,0.01,0.000000,,2013-10-13 03:12:00,
2013-10-12 21:22:00,38.0,24.0,-100.00,South,186,12.0,18.0,56,0.00,,,0.01,0.000000,,2013-10-13 03:22:00,
2013-10-12 21:34:00,38.0,24.0,-100.00,South,186,12.0,18.0,56,0.00,,,0.01,0.000000,,2013-10-13 03:34:00,
2013-10-12 21:44:00,38.0,24.0,-100.00,South,186,12.0,18.0,56,0.00,,,0.01,0.000000,,2013-10-13 03:44:00,
2013-10-12 22:02:00,-999.0,-99.9,-100.00,SSW,205,10.0,19.0,-999,-99.99,,,-99.99,0.000000,,2013-10-13 04:02:00,
2013-10-12 22:13:00,37.0,22.0,-100.00,SSW,205,10.0,19.0,54,0.00,,,0.01,0.000000,,2013-10-13 04:13:00,
2013-10-12 22:23:00,37.0,22.0,-100.00,SSW,205,10.0,19.0,54,0.00,,,0.01,0.000000,,2013-10-13 04:23:00,
2013-10-12 22:33:00,37.0,22.0,-100.00,SSW,205,10.0,19.0,54,0.00,,,0.01,0.000000,,2013-10-13 04:33:00,
2013-10-12 22:43:00,37.0,22.0,-100.00,SSW,205,10.0,19.0,54,0.00,,,0.01,0.000000,,2013-10-13 04:43:00,
2013-10-12 23:12:00,36.0,19.0,-100.00,SSW,204,11.0,16.0,50,0.00,,,0.01,0.000000,,2013-10-13 05:12:00,
2013-10-12 23:23:00,36.0,19.0,-100.00,SSW,204,11.0,16.0,50,0.00,,,0.01,0.000000,,2013-10-13 05:23:00,
2013-10-12 23:34:00,36.0,19.0,-100.00,SSW,204,11.0,16.0,50,0.00,,,0.01,0.000000,,2013-10-13 05:34:00,
2013-10-12 23:43:00,36.0,19.0,-100.00,SSW,204,11.0,16.0,50,0.00,,,0.01,0.000000,,2013-10-13 05:43:00,